DTTF/GAF METAR and TAF weather

Enter ICAO airport designator
Station Type Date Time Source
DTTF METAR 2020/03/28 21:00 UTC NOAA

DTTF 282100Z AUTO 06013KT NCD 13/10 Q1013


Station Type Date Time Source
DTTF Decoded METAR 2020/03/28 21:00 UTC NOAA

Gafsa, Tunisia (DTTF) 34-25N 008-49E 314M
Mar 28, 2020 - 05:00 PM EDT / 2020.03.28 2100 UTC
Wind: from the ENE (060 degrees) at 15 MPH (13 KT):0
Temperature: 55 F (13 C)
Dew Point: 50 F (10 C)
Relative Humidity: 81%
Pressure (altimeter): 29.91 in. Hg (1013 hPa)
ob: DTTF 282100Z AUTO 06013KT NCD 13/10 Q1013
cycle: 21

Station Type Date Time Source
DTTF TAF 2018/07/22 13:33 UTC NOAA

TAF DTTF 221200Z 2213/2322 22010KT 7000 NSC PROB30
TEMPO 2216/2220 4000 -TSRA FEW026CB

Example: see airport list